Accueil
METAR-TAF:

METAR-TAF

Aéroports :

Aéroport international Prince Saïd Ibrahim

Moroni, Comores

latitude: 11-32S, longitude: 043-16E, altitude: 29 m

Observation

Le bulletin a été fait il y a 1 heure et 8 minutes, à 17:00 UTC
Vent 5 kt de sud-est
Température 27°C
Humidité 74%
Pression 1017 hPa
Visibilité 10 km ou plus
Quelques nuages à une hauteur de 2000 ft

METAR: FMCH 191700Z 14005KT 9999 FEW020 27/22 Q1017 NOSIG

Heure: 21:08 (18:08 UTC)

Prévision

Le bulletin a été fait il y a 1 heure et 8 minutes, à 17:00 UTC
Prévision valable du 19 à 18 UTC au 20 à 24 UTC
Vent 3 kt de est/sud-est
Visibilité 10 km ou plus
Quelques nuages à une hauteur de 2000 ft
Evoluant progressivement
du 20 à 05 UTC au 20 à 07 UTC
Vent 10 kt de sud
Evoluant progressivement
du 20 à 16 UTC au 20 à 18 UTC
Vent 3 kt de est

TAF: FMCH 191700Z 1918/2024 11003KT 9999 FEW020 BECMG 2005/2007 18010KT BECMG 2016/2018 09003KT

Observations et prévisions météorologiques de plus de 4000 aéroports (messages METAR et TAF).

Les stations disponibles sont représentées par des disques jaunes et rouges sur la carte.

Passer la souris dessus pour voir le nom de la station.

Cliquer dessus pour voir les observations et prévisions météorologiques.

Pour changer de carte: cliquez sur les boutons verts avec une croix noire pour zoomer, sur le bouton vert avec un tiret pour effectuer un zoom arrière, ou sur les flèches vertes pour les cartes adjacentes.


METAR-TAF: